createdAt,value
2024-04-13T00:01:59.287Z,0.80
2024-04-13T00:04:03.713Z,0.77
2024-04-13T00:06:05.662Z,0.70
2024-04-13T00:08:07.387Z,0.70
2024-04-13T00:10:12.166Z,0.80
2024-04-13T00:12:14.143Z,0.80
2024-04-13T00:14:15.813Z,0.80
2024-04-13T00:16:17.429Z,0.80
2024-04-13T00:18:19.089Z,0.80
2024-04-13T00:20:22.419Z,0.60
2024-04-13T00:22:24.174Z,0.80
2024-04-13T00:24:25.823Z,0.70
2024-04-13T00:26:28.656Z,0.77
2024-04-13T00:28:30.629Z,0.80
2024-04-13T00:30:32.712Z,0.80
2024-04-13T00:32:34.573Z,0.75
2024-04-13T00:34:36.193Z,0.90
2024-04-13T00:36:37.910Z,0.80
2024-04-13T00:38:39.520Z,0.68
2024-04-13T00:40:43.520Z,0.65
2024-04-13T00:42:45.228Z,0.80
2024-04-13T00:44:46.982Z,0.93
2024-04-13T00:46:48.985Z,0.70
2024-04-13T00:48:51.199Z,0.60
2024-04-13T00:50:55.828Z,0.70
2024-04-13T00:52:57.429Z,0.77
2024-04-13T00:54:59.376Z,0.77
2024-04-13T00:57:01.109Z,0.68
2024-04-13T00:59:02.796Z,0.73
2024-04-13T01:01:05.081Z,0.70
2024-04-13T01:03:08.104Z,0.80
2024-04-13T01:05:14.821Z,0.60
2024-04-13T01:07:19.848Z,0.68
2024-04-13T01:09:23.772Z,0.60
2024-04-13T01:11:25.375Z,0.70
2024-04-13T01:13:27.499Z,0.60
2024-04-13T01:15:29.357Z,0.50
2024-04-13T01:17:31.087Z,0.60
2024-04-13T01:19:33.129Z,0.63
2024-04-13T01:21:34.944Z,0.60
2024-04-13T01:23:40.045Z,0.70
2024-04-13T01:25:42.372Z,0.63
2024-04-13T01:27:43.964Z,0.50
2024-04-13T01:29:45.893Z,0.65
2024-04-13T01:31:47.477Z,0.60
2024-04-13T01:33:49.607Z,0.63
2024-04-13T01:35:51.305Z,0.47
2024-04-13T01:37:52.878Z,0.50
2024-04-13T01:39:55.375Z,0.70
2024-04-13T01:41:56.966Z,0.60
2024-04-13T01:43:58.534Z,0.57
2024-04-13T01:46:00.129Z,0.60
2024-04-13T01:48:01.943Z,0.70
2024-04-13T01:50:04.297Z,0.60
2024-04-13T01:52:06.118Z,0.50
2024-04-13T01:54:07.792Z,0.60
2024-04-13T01:56:09.693Z,0.50
2024-04-13T01:58:11.423Z,0.65
2024-04-13T02:00:16.395Z,0.50
2024-04-13T02:02:18.124Z,0.70
2024-04-13T02:04:19.909Z,0.60
2024-04-13T02:06:21.550Z,0.50
2024-04-13T02:08:23.831Z,0.43
2024-04-13T02:10:25.465Z,0.50
2024-04-13T02:12:27.353Z,0.63
2024-04-13T02:14:29.435Z,0.40
2024-04-13T02:16:31.129Z,0.57
2024-04-13T02:18:33.488Z,0.50
2024-04-13T02:20:35.802Z,0.55
2024-04-13T02:22:37.399Z,0.40
2024-04-13T02:24:41.954Z,0.40
2024-04-13T02:26:43.700Z,0.60
2024-04-13T02:28:45.302Z,0.60
2024-04-13T02:30:47.024Z,0.50
2024-04-13T02:32:48.854Z,0.40
2024-04-13T02:34:53.221Z,0.50
2024-04-13T02:36:54.980Z,0.45
2024-04-13T02:38:56.758Z,0.60
2024-04-13T02:40:58.526Z,0.43
2024-04-13T02:43:04.356Z,0.50
2024-04-13T02:45:06.967Z,0.50
2024-04-13T02:47:08.741Z,0.50
2024-04-13T02:49:10.573Z,0.40
2024-04-13T02:51:12.614Z,0.50
2024-04-13T02:53:14.233Z,0.50
2024-04-13T02:55:15.791Z,0.40
2024-04-13T02:57:17.420Z,0.52
2024-04-13T02:59:19.119Z,0.55
2024-04-13T03:01:20.941Z,0.52
2024-04-13T03:03:22.762Z,0.40
2024-04-13T03:05:24.420Z,0.45
2024-04-13T03:07:26.326Z,0.40
2024-04-13T03:09:27.911Z,0.40
2024-04-13T03:11:29.862Z,0.50
2024-04-13T03:13:31.729Z,0.43
2024-04-13T03:15:33.397Z,0.40
2024-04-13T03:17:35.116Z,0.50
2024-04-13T03:19:37.178Z,0.40
2024-04-13T03:21:39.503Z,0.40
2024-04-13T03:23:42.159Z,0.50
2024-04-13T03:25:43.818Z,0.40
2024-04-13T03:27:46.427Z,0.55
2024-04-13T03:29:48.235Z,0.40
2024-04-13T03:31:49.811Z,0.40
2024-04-13T03:33:51.678Z,0.52
2024-04-13T03:35:53.378Z,0.40
2024-04-13T03:37:58.720Z,0.50
2024-04-13T03:40:01.313Z,0.35
2024-04-13T03:42:02.946Z,0.40
2024-04-13T03:44:04.650Z,0.40
2024-04-13T03:46:06.798Z,0.40
2024-04-13T03:48:08.613Z,0.50
2024-04-13T03:50:10.816Z,0.40
2024-04-13T03:52:12.566Z,0.50
2024-04-13T03:54:14.196Z,0.40
2024-04-13T03:56:17.444Z,0.45
2024-04-13T03:58:19.075Z,0.50
2024-04-13T04:00:20.927Z,0.40
2024-04-13T04:02:22.565Z,0.45
2024-04-13T04:04:24.334Z,0.30
2024-04-13T04:06:26.039Z,0.43
2024-04-13T04:08:27.685Z,0.50
2024-04-13T04:10:29.349Z,0.40
2024-04-13T04:12:31.097Z,0.35
2024-04-13T04:14:32.677Z,0.40
2024-04-13T04:16:34.260Z,0.40
2024-04-13T04:18:38.754Z,0.40
2024-04-13T04:20:40.941Z,0.40
2024-04-13T04:22:42.854Z,0.40
2024-04-13T04:24:44.462Z,0.40
2024-04-13T04:26:46.259Z,0.50
2024-04-13T04:28:47.873Z,0.40
2024-04-13T04:30:49.587Z,0.30
2024-04-13T04:32:51.641Z,0.40
2024-04-13T04:34:53.310Z,0.40
2024-04-13T04:36:56.015Z,0.47
2024-04-13T04:38:57.652Z,0.40
2024-04-13T04:40:59.417Z,0.50
2024-04-13T04:43:01.294Z,0.50
2024-04-13T04:45:03.967Z,0.38
2024-04-13T04:47:06.023Z,0.35
2024-04-13T04:49:07.844Z,0.50
2024-04-13T04:51:09.825Z,0.40
2024-04-13T04:53:11.595Z,0.50
2024-04-13T04:55:13.261Z,0.40
2024-04-13T04:57:14.903Z,0.60
2024-04-13T04:59:16.496Z,0.40
2024-04-13T05:01:18.321Z,0.57
2024-04-13T05:03:20.268Z,0.40
2024-04-13T05:05:22.179Z,0.40
2024-04-13T05:07:23.816Z,0.50
2024-04-13T05:09:25.466Z,0.40
2024-04-13T05:11:27.087Z,0.47
2024-04-13T05:13:30.498Z,0.40
2024-04-13T05:15:32.177Z,0.40
2024-04-13T05:17:33.806Z,0.40
2024-04-13T05:19:39.541Z,0.40
2024-04-13T05:21:41.491Z,0.50
2024-04-13T05:23:43.148Z,0.50
2024-04-13T05:25:45.623Z,0.57
2024-04-13T05:27:47.252Z,0.57
2024-04-13T05:29:53.934Z,0.50
2024-04-13T05:31:55.680Z,0.60
2024-04-13T05:33:57.398Z,0.60
2024-04-13T05:36:02.305Z,0.50
2024-04-13T05:38:06.243Z,0.68
2024-04-13T05:40:08.308Z,0.70
2024-04-13T05:42:10.074Z,0.80
2024-04-13T05:44:11.691Z,0.70
2024-04-13T05:46:13.282Z,0.63
2024-04-13T05:48:16.405Z,0.57
2024-04-13T05:50:18.134Z,0.70
2024-04-13T05:52:20.029Z,0.80
2024-04-13T05:54:22.642Z,0.75
2024-04-13T05:56:24.233Z,0.93
2024-04-13T05:58:26.319Z,0.70
2024-04-13T06:00:27.953Z,0.80
2024-04-13T06:02:29.961Z,0.70
2024-04-13T06:04:31.942Z,0.68
2024-04-13T06:06:33.833Z,0.70
2024-04-13T06:08:36.032Z,0.90
2024-04-13T06:10:37.950Z,0.63
2024-04-13T06:12:39.718Z,0.60
2024-04-13T06:14:42.507Z,0.80
2024-04-13T06:16:46.181Z,0.70
2024-04-13T06:18:48.170Z,0.95
2024-04-13T06:20:49.856Z,0.73
2024-04-13T06:22:51.478Z,0.70
2024-04-13T06:24:53.178Z,0.70
2024-04-13T06:26:57.782Z,0.82
2024-04-13T06:28:59.496Z,0.80
2024-04-13T06:31:01.258Z,0.88
2024-04-13T06:33:03.112Z,0.70
2024-04-13T06:35:05.157Z,0.70
2024-04-13T06:37:07.406Z,0.60
2024-04-13T06:39:09.282Z,0.80
2024-04-13T06:41:11.116Z,0.70
2024-04-13T06:43:12.789Z,0.75
2024-04-13T06:45:15.963Z,0.85
2024-04-13T06:47:17.803Z,0.68
2024-04-13T06:49:20.380Z,0.70
2024-04-13T06:51:24.910Z,0.80
2024-04-13T06:53:26.738Z,0.77
2024-04-13T06:55:28.410Z,0.80
2024-04-13T06:57:30.328Z,0.80
2024-04-13T06:59:32.023Z,0.60
2024-04-13T07:01:34.138Z,0.80
2024-04-13T07:03:35.978Z,0.63
2024-04-13T07:05:37.672Z,0.77
2024-04-13T07:07:40.805Z,0.60
2024-04-13T07:09:42.612Z,0.70
2024-04-13T07:11:44.231Z,0.70
2024-04-13T07:13:48.063Z,0.60
2024-04-13T07:15:50.463Z,0.90
2024-04-13T07:17:52.143Z,0.70
2024-04-13T07:19:53.743Z,0.70
2024-04-13T07:21:55.905Z,0.70
2024-04-13T07:23:57.558Z,0.50
2024-04-13T07:26:02.590Z,0.70
2024-04-13T07:28:04.276Z,0.63
2024-04-13T07:30:06.962Z,0.60
2024-04-13T07:32:08.717Z,0.70
2024-04-13T07:34:10.372Z,0.50
2024-04-13T07:36:12.162Z,0.60
2024-04-13T07:38:13.782Z,0.70
2024-04-13T07:40:15.408Z,0.70
2024-04-13T07:42:17.102Z,0.57
2024-04-13T07:44:21.686Z,0.60
2024-04-13T07:46:23.341Z,0.70
2024-04-13T07:48:25.036Z,0.50
2024-04-13T07:50:26.742Z,0.60
2024-04-13T07:52:28.563Z,0.50
2024-04-13T07:54:30.257Z,0.50
2024-04-13T07:56:31.954Z,0.50
2024-04-13T07:58:33.691Z,0.50
2024-04-13T08:00:35.524Z,0.60
2024-04-13T08:02:39.554Z,0.63
2024-04-13T08:04:41.515Z,0.70
2024-04-13T08:06:43.282Z,0.50
2024-04-13T08:08:45.142Z,0.50
2024-04-13T08:10:49.132Z,0.50
2024-04-13T08:12:51.008Z,0.57
2024-04-13T08:14:52.759Z,0.40
2024-04-13T08:16:54.569Z,0.50
2024-04-13T08:18:56.270Z,0.50
2024-04-13T08:20:58.126Z,0.50
2024-04-13T08:23:01.865Z,0.60
2024-04-13T08:25:03.894Z,0.60
2024-04-13T08:27:05.860Z,0.50
2024-04-13T08:29:07.549Z,0.50
2024-04-13T08:31:09.547Z,0.50
2024-04-13T08:33:11.401Z,0.50
2024-04-13T08:35:13.191Z,0.52
2024-04-13T08:37:14.798Z,0.55
2024-04-13T08:39:16.954Z,0.47
2024-04-13T08:41:39.196Z,0.40
2024-04-13T08:43:40.879Z,0.40
2024-04-13T08:45:42.558Z,0.40
2024-04-13T08:47:44.525Z,0.43
2024-04-13T08:49:48.808Z,0.50
2024-04-13T08:51:50.549Z,0.50
2024-04-13T08:53:52.402Z,0.50
2024-04-13T08:55:55.313Z,0.47
2024-04-13T08:57:57.266Z,0.50
2024-04-13T09:00:04.064Z,0.50
2024-04-13T09:02:10.258Z,0.50
2024-04-13T09:04:13.611Z,0.55
2024-04-13T09:06:15.763Z,0.40
2024-04-13T09:08:17.852Z,0.43
2024-04-13T09:10:19.651Z,0.60
2024-04-13T09:12:21.272Z,0.45
2024-04-13T09:14:23.918Z,0.40
2024-04-13T09:16:25.887Z,0.68
2024-04-13T09:18:27.827Z,0.50
2024-04-13T09:20:30.650Z,0.50
2024-04-13T09:22:32.344Z,0.50
2024-04-13T09:24:41.044Z,0.43
2024-04-13T09:26:43.313Z,0.45
2024-04-13T09:28:46.002Z,0.30
2024-04-13T09:30:50.389Z,0.50
2024-04-13T09:32:59.837Z,0.40
2024-04-13T09:35:14.253Z,0.50
2024-04-13T09:37:16.631Z,0.40
2024-04-13T09:39:22.221Z,0.50
2024-04-13T09:41:24.545Z,0.50
2024-04-13T09:43:26.236Z,0.40
2024-04-13T09:45:27.933Z,0.50
2024-04-13T09:47:29.588Z,0.43
2024-04-13T09:49:31.285Z,0.40
2024-04-13T09:51:33.546Z,0.40
2024-04-13T09:53:35.212Z,0.40
2024-04-13T09:55:37.036Z,0.50
2024-04-13T09:57:39.770Z,0.52
2024-04-13T09:59:46.610Z,0.52
2024-04-13T10:01:48.750Z,0.50
2024-04-13T10:03:50.585Z,0.50
2024-04-13T10:05:55.477Z,0.40
2024-04-13T10:07:58.066Z,0.50
2024-04-13T10:10:02.052Z,0.50
2024-04-13T10:12:04.594Z,0.60
2024-04-13T10:14:07.411Z,0.50
2024-04-13T10:16:09.682Z,0.57
2024-04-13T10:18:12.005Z,0.60
2024-04-13T10:20:14.759Z,0.60
2024-04-13T10:22:24.448Z,0.40
2024-04-13T10:24:33.734Z,0.70
2024-04-13T10:26:35.824Z,0.50
2024-04-13T10:28:39.058Z,0.50
2024-04-13T10:30:46.901Z,0.43
2024-04-13T10:32:50.002Z,0.52
2024-04-13T10:34:53.102Z,0.50
2024-04-13T10:36:58.669Z,0.60
2024-04-13T10:39:10.289Z,0.63
2024-04-13T10:41:34.361Z,0.40
2024-04-13T10:43:36.104Z,0.40
2024-04-13T10:45:38.026Z,0.50
2024-04-13T10:47:41.178Z,0.40
2024-04-13T10:49:51.436Z,0.40
2024-04-13T10:51:59.214Z,0.50
2024-04-13T10:54:02.191Z,0.50
2024-04-13T10:56:03.944Z,0.40
2024-04-13T10:58:05.789Z,0.40
2024-04-13T11:00:10.314Z,0.40
2024-04-13T11:02:12.186Z,0.47
2024-04-13T11:04:14.966Z,0.47
2024-04-13T11:06:17.488Z,0.40
2024-04-13T11:08:19.945Z,0.55
2024-04-13T11:10:21.847Z,0.40
2024-04-13T11:12:23.625Z,0.40
2024-04-13T11:14:25.300Z,0.40
2024-04-13T11:16:26.909Z,0.55
2024-04-13T11:18:29.035Z,0.50
2024-04-13T11:20:31.428Z,0.40
2024-04-13T11:22:33.583Z,0.50
2024-04-13T11:24:38.449Z,0.40
2024-04-13T11:26:40.112Z,0.40
2024-04-13T11:28:41.773Z,0.50
2024-04-13T11:30:43.696Z,0.50
2024-04-13T11:32:45.959Z,0.50
2024-04-13T11:34:47.913Z,0.45
2024-04-13T11:36:49.832Z,0.40
2024-04-13T11:38:51.561Z,0.35
2024-04-13T11:40:53.270Z,0.50
2024-04-13T11:42:57.733Z,0.50
2024-04-13T11:45:00.204Z,0.40
2024-04-13T11:47:01.969Z,0.40
2024-04-13T11:49:03.680Z,0.40
2024-04-13T11:51:08.886Z,0.40
2024-04-13T11:53:12.770Z,0.40
2024-04-13T11:55:14.548Z,0.43
2024-04-13T11:57:17.310Z,0.40
2024-04-13T11:59:19.162Z,0.40
2024-04-13T12:01:22.491Z,0.43
2024-04-13T12:03:24.435Z,0.45
2024-04-13T12:05:27.309Z,0.40
2024-04-13T12:07:29.189Z,0.40
2024-04-13T12:09:31.221Z,0.35
2024-04-13T12:11:32.991Z,0.40
2024-04-13T12:13:34.663Z,0.35
2024-04-13T12:15:36.309Z,0.40
2024-04-13T12:17:38.539Z,0.40
2024-04-13T12:19:40.568Z,0.45
2024-04-13T12:21:42.467Z,0.30
2024-04-13T12:23:44.147Z,0.45
2024-04-13T12:25:45.762Z,0.50
2024-04-13T12:27:47.570Z,0.45
2024-04-13T12:29:49.334Z,0.50
2024-04-13T12:31:50.930Z,0.50
2024-04-13T12:33:52.855Z,0.50
2024-04-13T12:36:00.406Z,0.50
2024-04-13T12:38:03.256Z,0.45
2024-04-13T12:40:05.021Z,0.50
2024-04-13T12:42:06.667Z,0.50
2024-04-13T12:44:08.250Z,0.30
2024-04-13T12:46:11.627Z,0.50
2024-04-13T12:48:14.197Z,0.45
2024-04-13T12:50:15.928Z,0.45
2024-04-13T12:52:18.112Z,0.40
2024-04-13T12:54:19.774Z,0.40
2024-04-13T12:56:21.727Z,0.40
2024-04-13T12:58:23.497Z,0.60
2024-04-13T13:00:25.221Z,0.40
2024-04-13T13:02:27.986Z,0.40
2024-04-13T13:04:29.697Z,0.40
2024-04-13T13:06:32.061Z,0.35
2024-04-13T13:08:33.819Z,0.40
2024-04-13T13:10:35.778Z,0.40
2024-04-13T13:12:37.587Z,0.32
2024-04-13T13:14:39.178Z,0.35
2024-04-13T13:16:41.044Z,0.38
2024-04-13T13:18:42.923Z,0.38
2024-04-13T13:20:44.810Z,0.30
2024-04-13T13:22:48.634Z,0.40
2024-04-13T13:24:52.466Z,0.30
2024-04-13T13:26:54.120Z,0.30
2024-04-13T13:29:01.861Z,0.40
2024-04-13T13:31:03.575Z,0.20
2024-04-13T13:33:05.305Z,0.30
2024-04-13T13:35:07.111Z,0.38
2024-04-13T13:37:09.635Z,0.30
2024-04-13T13:39:11.226Z,0.30
2024-04-13T13:41:12.795Z,0.20
2024-04-13T13:43:14.765Z,0.20
2024-04-13T13:45:16.573Z,0.20
2024-04-13T13:47:21.004Z,0.25
2024-04-13T13:49:25.464Z,0.20
2024-04-13T13:51:27.411Z,0.30
2024-04-13T13:53:29.403Z,0.40
2024-04-13T13:55:32.429Z,0.30
2024-04-13T13:57:34.098Z,0.30
2024-04-13T13:59:35.728Z,0.30
2024-04-13T14:01:39.633Z,0.30
2024-04-13T14:03:41.578Z,0.30
2024-04-13T14:05:43.625Z,0.25
2024-04-13T14:07:45.232Z,0.20
2024-04-13T14:09:47.506Z,0.20
2024-04-13T14:11:49.903Z,0.30
2024-04-13T14:13:51.739Z,0.30
2024-04-13T14:15:53.727Z,0.20
2024-04-13T14:17:55.468Z,0.30
2024-04-13T14:19:57.094Z,0.30
2024-04-13T14:21:58.945Z,0.22
2024-04-13T14:24:00.703Z,0.30
2024-04-13T14:26:05.335Z,0.30
2024-04-13T14:28:07.310Z,0.32
2024-04-13T14:30:10.566Z,0.40
2024-04-13T14:32:12.202Z,0.20
2024-04-13T14:34:13.843Z,0.30
2024-04-13T14:36:15.555Z,0.30
2024-04-13T14:38:17.399Z,0.28
2024-04-13T14:40:19.079Z,0.28
2024-04-13T14:42:20.801Z,0.30
2024-04-13T14:44:22.467Z,0.32
2024-04-13T14:46:24.245Z,0.43
2024-04-13T14:48:25.996Z,0.40
2024-04-13T14:50:27.997Z,0.30
2024-04-13T14:52:32.700Z,0.30
2024-04-13T14:54:36.142Z,0.40
2024-04-13T14:56:38.019Z,0.30
2024-04-13T14:58:39.912Z,0.40
2024-04-13T15:00:41.621Z,0.30
2024-04-13T15:02:43.885Z,0.30
2024-04-13T15:04:45.566Z,0.30
2024-04-13T15:06:47.346Z,0.30
2024-04-13T15:08:50.555Z,0.30
2024-04-13T15:10:52.151Z,0.30
2024-04-13T15:12:53.844Z,0.30
2024-04-13T15:14:55.671Z,0.30
2024-04-13T15:16:57.276Z,0.30
2024-04-13T15:18:59.097Z,0.50
2024-04-13T15:21:03.132Z,0.30
2024-04-13T15:23:05.081Z,0.30
2024-04-13T15:25:07.015Z,0.40
2024-04-13T15:27:09.079Z,0.30
2024-04-13T15:29:11.124Z,0.25
2024-04-13T15:31:12.896Z,0.40
2024-04-13T15:33:14.540Z,0.20
2024-04-13T15:35:16.230Z,0.30
2024-04-13T15:37:18.516Z,0.30
2024-04-13T15:39:20.215Z,0.30
2024-04-13T15:41:23.420Z,0.30
2024-04-13T15:43:25.381Z,0.20
2024-04-13T15:45:26.949Z,0.30
2024-04-13T15:47:29.394Z,0.30
2024-04-13T15:49:31.121Z,0.20
2024-04-13T15:51:32.764Z,0.30
2024-04-13T15:53:34.426Z,0.30
2024-04-13T15:55:39.389Z,0.20
2024-04-13T15:57:41.035Z,0.30
2024-04-13T15:59:46.971Z,0.22
2024-04-13T16:01:48.601Z,0.20
2024-04-13T16:03:50.426Z,0.30
2024-04-13T16:05:57.674Z,0.20
2024-04-13T16:07:59.530Z,0.20
2024-04-13T16:10:01.346Z,0.30
2024-04-13T16:12:03.176Z,0.32
2024-04-13T16:14:05.258Z,0.40
2024-04-13T16:16:14.661Z,0.30
2024-04-13T16:18:23.277Z,0.40
2024-04-13T16:20:24.909Z,0.50
2024-04-13T16:22:26.613Z,0.32
2024-04-13T16:24:28.292Z,0.40
2024-04-13T16:26:30.435Z,0.43
2024-04-13T16:28:32.111Z,0.40
2024-04-13T16:30:36.378Z,0.38
2024-04-13T16:32:39.917Z,0.45
2024-04-13T16:34:41.919Z,0.40
2024-04-13T16:36:43.644Z,0.40
2024-04-13T16:38:45.324Z,0.30
2024-04-13T16:40:46.877Z,0.40
2024-04-13T16:42:48.662Z,0.40
2024-04-13T16:44:50.499Z,0.40
2024-04-13T16:46:52.281Z,0.50
2024-04-13T16:48:54.004Z,0.40
2024-04-13T16:50:56.644Z,0.30
2024-04-13T16:52:58.228Z,0.32
2024-04-13T16:54:59.985Z,0.47
2024-04-13T16:57:02.123Z,0.30
2024-04-13T16:59:04.665Z,0.30
2024-04-13T17:01:06.426Z,0.40
2024-04-13T17:03:08.138Z,0.30
2024-04-13T17:05:09.795Z,0.30
2024-04-13T17:07:11.860Z,0.40
2024-04-13T17:09:14.061Z,0.30
2024-04-13T17:11:15.915Z,0.32
2024-04-13T17:13:17.774Z,0.30
2024-04-13T17:15:19.540Z,0.30
2024-04-13T17:17:22.781Z,0.30
2024-04-13T17:19:24.375Z,0.30
2024-04-13T17:21:26.078Z,0.38
2024-04-13T17:23:27.726Z,0.40
2024-04-13T17:25:29.442Z,0.35
2024-04-13T17:27:31.353Z,0.30
2024-04-13T17:29:33.011Z,0.38
2024-04-13T17:31:34.909Z,0.30
2024-04-13T17:33:36.606Z,0.30
2024-04-13T17:35:40.015Z,0.40
2024-04-13T17:37:41.750Z,0.40
2024-04-13T17:39:44.165Z,0.30
2024-04-13T17:41:45.799Z,0.40
2024-04-13T17:43:49.481Z,0.30
2024-04-13T17:45:51.423Z,0.25
2024-04-13T17:47:54.887Z,0.30
2024-04-13T17:49:56.715Z,0.30
2024-04-13T17:51:58.490Z,0.40
2024-04-13T17:54:00.217Z,0.32
2024-04-13T17:56:02.413Z,0.20
2024-04-13T17:58:04.297Z,0.20
2024-04-13T18:00:06.951Z,0.32
2024-04-13T18:02:08.591Z,0.32
2024-04-13T18:04:13.928Z,0.30
2024-04-13T18:06:17.220Z,0.30
2024-04-13T18:08:19.056Z,0.45
2024-04-13T18:10:20.682Z,0.30
2024-04-13T18:12:24.428Z,0.30
2024-04-13T18:14:29.202Z,0.40
2024-04-13T18:16:31.466Z,0.38
2024-04-13T18:18:35.541Z,0.30
2024-04-13T18:20:37.682Z,0.30
2024-04-13T18:22:39.316Z,0.40
2024-04-13T18:24:41.021Z,0.30
2024-04-13T18:26:43.060Z,0.40
2024-04-13T18:28:45.121Z,0.30
2024-04-13T18:30:48.218Z,0.40
2024-04-13T18:32:50.524Z,0.35
2024-04-13T18:34:52.313Z,0.40
2024-04-13T18:36:54.058Z,0.20
2024-04-13T18:38:58.898Z,0.40
2024-04-13T18:41:00.538Z,0.50
2024-04-13T18:43:04.918Z,0.30
2024-04-13T18:45:06.838Z,0.30
2024-04-13T18:47:08.530Z,0.30
2024-04-13T18:49:10.182Z,0.30
2024-04-13T18:51:11.919Z,0.40
2024-04-13T18:53:13.542Z,0.30
2024-04-13T18:55:19.716Z,0.30
2024-04-13T18:57:21.683Z,0.30
2024-04-13T18:59:23.396Z,0.30
2024-04-13T19:01:25.100Z,0.38
2024-04-13T19:03:26.996Z,0.40
2024-04-13T19:05:31.919Z,0.30
2024-04-13T19:07:33.554Z,0.20
2024-04-13T19:09:36.221Z,0.30
2024-04-13T19:11:38.007Z,0.32
2024-04-13T19:13:40.114Z,0.30
2024-04-13T19:15:56.432Z,0.30
2024-04-13T19:18:06.067Z,0.35
2024-04-13T19:20:07.838Z,0.38
2024-04-13T19:22:09.443Z,0.40
2024-04-13T19:24:11.173Z,0.22
2024-04-13T19:26:12.851Z,0.40
2024-04-13T19:28:14.493Z,0.40
2024-04-13T19:30:18.526Z,0.35
2024-04-13T19:32:20.194Z,0.38
2024-04-13T19:34:22.075Z,0.30
2024-04-13T19:36:23.809Z,0.35
2024-04-13T19:38:26.600Z,0.40
2024-04-13T19:40:28.217Z,0.40
2024-04-13T19:42:29.798Z,0.32
2024-04-13T19:44:31.795Z,0.40
2024-04-13T19:46:33.518Z,0.30
2024-04-13T19:48:35.291Z,0.40
2024-04-13T19:50:37.039Z,0.40
2024-04-13T19:52:38.674Z,0.30
2024-04-13T19:54:40.680Z,0.30
2024-04-13T19:56:42.319Z,0.30
2024-04-13T19:58:44.427Z,0.40
2024-04-13T20:00:46.418Z,0.30
2024-04-13T20:02:48.170Z,0.40
2024-04-13T20:04:50.278Z,0.35
2024-04-13T20:06:52.011Z,0.40
2024-04-13T20:08:53.627Z,0.30
2024-04-13T20:11:05.584Z,0.43
2024-04-13T20:13:07.364Z,0.30
2024-04-13T20:15:27.849Z,0.35
2024-04-13T20:17:50.254Z,0.40
2024-04-13T20:19:51.867Z,0.40
2024-04-13T20:21:55.142Z,0.43
2024-04-13T20:23:56.928Z,0.40
2024-04-13T20:25:58.568Z,0.40
2024-04-13T20:28:00.294Z,0.40
2024-04-13T20:30:02.236Z,0.40
2024-04-13T20:32:07.658Z,0.40
2024-04-13T20:34:09.599Z,0.40
2024-04-13T20:36:11.247Z,0.50
2024-04-13T20:38:12.898Z,0.50
2024-04-13T20:40:15.493Z,0.40
2024-04-13T20:42:17.509Z,0.40
2024-04-13T20:44:19.151Z,0.40
2024-04-13T20:46:20.746Z,0.40
2024-04-13T20:48:22.407Z,0.40
2024-04-13T20:50:25.682Z,0.40
2024-04-13T20:52:27.673Z,0.32
2024-04-13T20:54:29.281Z,0.40
2024-04-13T20:56:30.867Z,0.47
2024-04-13T20:58:32.454Z,0.30
2024-04-13T21:00:37.344Z,0.30
2024-04-13T21:02:41.760Z,0.50
2024-04-13T21:04:43.608Z,0.40
2024-04-13T21:06:45.215Z,0.30
2024-04-13T21:08:49.002Z,0.40
2024-04-13T21:10:50.786Z,0.40
2024-04-13T21:12:52.640Z,0.40
2024-04-13T21:14:54.375Z,0.50
2024-04-13T21:16:56.074Z,0.45
2024-04-13T21:19:02.715Z,0.35
2024-04-13T21:21:04.621Z,0.40
2024-04-13T21:23:06.359Z,0.40
2024-04-13T21:25:09.990Z,0.50
2024-04-13T21:27:11.651Z,0.40
2024-04-13T21:29:13.284Z,0.40
2024-04-13T21:31:15.064Z,0.40
2024-04-13T21:33:16.802Z,0.50
2024-04-13T21:35:18.893Z,0.50
2024-04-13T21:37:20.748Z,0.50
2024-04-13T21:39:24.782Z,0.50
2024-04-13T21:41:29.449Z,0.43
2024-04-13T21:43:33.373Z,0.50
2024-04-13T21:45:35.219Z,0.50
2024-04-13T21:47:37.090Z,0.47
2024-04-13T21:49:38.933Z,0.32
2024-04-13T21:51:40.695Z,0.50
2024-04-13T21:53:42.457Z,0.45
2024-04-13T21:55:45.085Z,0.50
2024-04-13T21:57:46.899Z,0.50
2024-04-13T21:59:51.343Z,0.40
2024-04-13T22:01:53.733Z,0.43
2024-04-13T22:03:55.362Z,0.40
2024-04-13T22:05:57.252Z,0.40
2024-04-13T22:07:58.885Z,0.40
2024-04-13T22:10:00.752Z,0.52
2024-04-13T22:12:02.486Z,0.45
2024-04-13T22:14:04.095Z,0.50
2024-04-13T22:16:06.062Z,0.57
2024-04-13T22:18:07.959Z,0.55
2024-04-13T22:20:12.083Z,0.50
2024-04-13T22:22:15.553Z,0.40
2024-04-13T22:24:17.481Z,0.65
2024-04-13T22:26:19.097Z,0.50
2024-04-13T22:28:20.702Z,0.43
2024-04-13T22:30:22.742Z,0.50
2024-04-13T22:32:24.529Z,0.45
2024-04-13T22:34:26.351Z,0.50
2024-04-13T22:36:32.167Z,0.50
2024-04-13T22:38:34.247Z,0.50
2024-04-13T22:40:38.141Z,0.50
2024-04-13T22:42:40.012Z,0.40
2024-04-13T22:44:41.670Z,0.38
2024-04-13T22:46:43.768Z,0.50
2024-04-13T22:48:46.276Z,0.40
2024-04-13T22:50:48.197Z,0.40
2024-04-13T22:52:49.826Z,0.40
2024-04-13T22:54:51.430Z,0.47
2024-04-13T22:56:53.370Z,0.50
2024-04-13T22:58:54.990Z,0.50
2024-04-13T23:00:56.666Z,0.40
2024-04-13T23:02:58.357Z,0.38
2024-04-13T23:05:00.118Z,0.50
2024-04-13T23:07:02.308Z,0.50
2024-04-13T23:09:04.686Z,0.60
2024-04-13T23:11:06.347Z,0.40
2024-04-13T23:13:08.021Z,0.40
2024-04-13T23:15:09.832Z,0.40
2024-04-13T23:17:11.487Z,0.50
2024-04-13T23:19:13.232Z,0.50
2024-04-13T23:21:15.154Z,0.40
2024-04-13T23:23:17.011Z,0.38
2024-04-13T23:25:18.827Z,0.50
2024-04-13T23:27:20.734Z,0.50
2024-04-13T23:29:22.659Z,0.30
2024-04-13T23:31:24.847Z,0.43
2024-04-13T23:33:26.562Z,0.40
2024-04-13T23:35:28.448Z,0.43
2024-04-13T23:37:30.050Z,0.47
2024-04-13T23:39:32.047Z,0.40
2024-04-13T23:41:33.751Z,0.38
2024-04-13T23:43:35.327Z,0.40
2024-04-13T23:45:36.963Z,0.50
2024-04-13T23:47:38.625Z,0.40
2024-04-13T23:49:40.801Z,0.40
2024-04-13T23:51:42.504Z,0.30
2024-04-13T23:53:44.444Z,0.30
2024-04-13T23:55:46.115Z,0.40
2024-04-13T23:57:48.433Z,0.40
2024-04-13T23:59:50.040Z,0.40
